Terminal Aerodrome Forecast
Issued by NWS

Home | Current Version | Previous Version | Text Only | Print | Product List | Glossary On
Versions: 1 2 3 4 5 6 7 8 9 10 11 12 13 14 15
000
FTUS45 KGGW 231720
TAFSDY
TAF
KSDY 231720Z 2318/2418 32020G30KT P6SM SCT070
     FM240200 32010KT P6SM FEW100
     FM241400 31009KT P6SM FEW120=

USA.gov is the U.S. government's official web portal to all federal, state and local government web resources and services.